Time;durP1;ratioP1;P1;durP2;ratioP2;P2;SDS_P1;SDS_P2;PMS_P1;PMS_P2;Temp;Humidity;BMP_temperature;BMP_pressure;BME280_temperature;BME280_humidity;BME280_pressure;Samples;Min_cycle;Max_cycle;Signal;HPM_P1;HPM_P2
2023/08/03 00:00:26;;;;;;;17.13;9.90;;;24.60;84.90;;;25.17;57.49;94499.47;5080678;28;20973;-63
2023/08/03 00:02:54;;;;;;;11.30;8.00;;;24.50;85.20;;;25.16;57.47;94500.50;5079338;28;20472;-66
2023/08/03 00:05:22;;;;;;;10.53;8.60;;;24.50;85.50;;;25.11;57.32;94503.13;5079017;28;20565;-57
2023/08/03 00:07:49;;;;;;;9.87;8.93;;;24.50;85.70;;;25.09;57.35;94506.06;5075042;28;20864;-58
2023/08/03 00:10:16;;;;;;;10.73;9.07;;;24.40;85.70;;;25.05;57.14;94505.72;5081921;28;20569;-57
2023/08/03 00:12:43;;;;;;;9.53;8.03;;;24.40;86.10;;;25.03;57.58;94507.81;5078899;28;20454;-55
2023/08/03 00:15:11;;;;;;;10.47;8.90;;;24.40;86.30;;;24.98;57.90;94507.72;5081861;28;20506;-63
2023/08/03 00:17:38;;;;;;;9.63;8.73;;;24.40;87.00;;;24.95;58.26;94505.50;5074690;28;20916;-56
2023/08/03 00:20:08;;;;;;;11.13;8.10;;;24.30;87.30;;;24.86;57.87;94497.00;5078181;28;20952;-64
2023/08/03 00:22:35;;;;;;;9.43;8.63;;;24.30;87.50;;;24.84;57.93;94503.69;5079415;28;20519;-63
2023/08/03 00:25:03;;;;;;;13.67;8.93;;;24.20;87.60;;;24.80;58.59;94499.81;5081794;28;21126;-63
2023/08/03 00:27:30;;;;;;;10.13;8.33;;;24.20;88.10;;;24.77;58.30;94497.59;5078405;28;20542;-57
2023/08/03 00:29:58;;;;;;;9.50;8.50;;;24.20;88.20;;;24.74;58.55;94498.91;5072953;28;21028;-57
2023/08/03 00:32:25;;;;;;;9.47;8.53;;;24.10;88.60;;;24.72;59.16;94502.88;5079363;28;20515;-57
2023/08/03 00:34:52;;;;;;;11.40;8.93;;;24.10;89.30;;;24.65;59.19;94501.16;5075157;28;20978;-62
2023/08/03 00:37:21;;;;;;;10.23;8.77;;;24.00;89.60;;;24.60;58.72;94501.03;5071624;28;20537;-63
2023/08/03 00:39:48;;;;;;;11.57;7.80;;;24.00;89.80;;;24.57;59.45;94498.81;5076309;28;20515;-62
2023/08/03 00:42:15;;;;;;;9.60;8.70;;;24.00;90.10;;;24.55;59.37;94500.06;5078873;28;20469;-56
2023/08/03 00:44:42;;;;;;;8.83;8.00;;;23.90;90.10;;;24.53;59.50;94486.88;5078484;28;20454;-59
2023/08/03 00:47:09;;;;;;;12.60;8.00;;;23.90;90.30;;;24.52;59.67;94498.66;5078716;28;20482;-55
2023/08/03 00:49:36;;;;;;;9.30;8.20;;;23.90;90.50;;;24.49;59.64;94502.66;5070654;28;20970;-55
2023/08/03 00:52:05;;;;;;;9.17;8.30;;;23.90;90.60;;;24.49;59.83;94507.22;5077521;28;20469;-61
2023/08/03 00:54:33;;;;;;;12.20;8.90;;;23.80;90.70;;;24.48;59.63;94500.22;5066949;28;21363;-63
2023/08/03 00:57:00;;;;;;;9.70;8.67;;;23.80;90.70;;;24.46;59.38;94499.63;5067188;28;21338;-57
2023/08/03 00:59:28;;;;;;;9.63;6.93;;;23.80;90.80;;;24.44;59.88;94499.84;5077160;28;20461;-57
2023/08/03 01:01:55;;;;;;;12.70;7.80;;;23.80;90.90;;;24.44;59.95;94502.53;5073538;28;20516;-63
2023/08/03 01:04:22;;;;;;;8.90;8.17;;;23.80;91.00;;;24.43;59.91;94497.41;5077953;28;20460;-57
2023/08/03 01:06:49;;;;;;;18.33;8.93;;;23.80;91.10;;;24.41;59.29;94488.75;5076683;28;20474;-62
2023/08/03 01:09:16;;;;;;;9.93;8.93;;;23.80;91.20;;;24.41;59.57;94499.50;5072059;28;20465;-56
2023/08/03 01:11:46;;;;;;;8.87;8.07;;;23.80;91.30;;;24.40;59.81;94495.19;5075732;28;21110;-63
2023/08/03 01:14:13;;;;;;;10.77;7.60;;;23.80;91.40;;;24.39;59.77;94491.69;5076955;28;20458;-57
2023/08/03 01:16:40;;;;;;;9.50;8.53;;;23.80;91.50;;;24.37;59.95;94499.16;5077809;28;20623;-56
2023/08/03 01:19:08;;;;;;;9.53;8.53;;;23.70;91.40;;;24.38;59.40;94508.03;5079678;28;20527;-55
2023/08/03 01:21:35;;;;;;;9.77;8.67;;;23.80;91.50;;;24.39;59.41;94505.13;5076317;28;21038;-56
2023/08/03 01:24:04;;;;;;;13.10;8.80;;;23.70;91.40;;;24.39;59.90;94499.75;5074239;28;20919;-56
2023/08/03 01:26:31;;;;;;;9.93;8.93;;;23.80;91.50;;;24.39;59.24;94501.63;5078546;28;21030;-63
2023/08/03 01:28:59;;;;;;;9.27;8.37;;;23.80;91.50;;;24.37;59.30;94504.53;5076110;28;20450;-64
2023/08/03 01:31:26;;;;;;;10.87;9.10;;;23.80;91.50;;;24.35;59.96;94501.25;5074506;28;20548;-55
2023/08/03 01:33:53;;;;;;;14.90;8.70;;;23.70;91.50;;;24.32;59.45;94499.88;5072925;28;20462;-62
2023/08/03 01:36:21;;;;;;;9.27;8.40;;;23.70;91.50;;;24.31;60.10;94500.91;5074582;28;20470;-62
2023/08/03 01:38:55;;;;;;;17.80;8.33;;;23.70;91.60;;;24.30;60.15;94510.03;5070240;28;20462;-65
2023/08/03 01:41:24;;;;;;;10.57;8.97;;;23.70;91.70;;;24.25;60.17;94507.22;5074623;28;20946;-58
2023/08/03 01:44:06;;;;;;;12.23;8.73;;;23.60;92.00;;;24.21;60.14;94500.69;5070095;28;20549;-65
2023/08/03 01:46:33;;;;;;;9.43;8.63;;;23.60;91.90;;;24.16;59.82;94503.25;5068169;28;20551;-65
2023/08/03 01:49:00;;;;;;;9.47;8.37;;;23.60;92.00;;;24.10;60.48;94506.88;5072414;28;20454;-65
2023/08/03 01:51:27;;;;;;;12.30;8.90;;;23.50;92.10;;;24.05;60.08;94507.56;5070647;28;20870;-57
2023/08/03 01:53:55;;;;;;;11.13;9.20;;;23.50;92.20;;;24.01;60.64;94509.06;5069229;28;20532;-58
2023/08/03 01:56:23;;;;;;;11.20;8.80;;;23.40;92.10;;;23.97;60.35;94514.09;5071167;28;20497;-65
2023/08/03 01:58:50;;;;;;;8.63;7.83;;;23.40;92.40;;;23.94;60.21;94522.63;5067931;28;20463;-60
2023/08/03 02:01:18;;;;;;;15.37;8.83;;;23.30;92.60;;;23.92;60.47;94515.84;5076198;28;20471;-65
2023/08/03 02:03:45;;;;;;;9.73;8.83;;;23.30;92.60;;;23.91;61.04;94515.03;5074501;28;20461;-58
2023/08/03 02:06:12;;;;;;;15.43;8.70;;;23.30;92.70;;;23.88;61.11;94506.63;5069849;28;20535;-59
2023/08/03 02:08:39;;;;;;;11.20;10.10;;;23.30;93.00;;;23.87;61.03;94505.78;5071652;28;20450;-67
2023/08/03 02:11:07;;;;;;;10.13;9.03;;;23.30;93.00;;;23.82;61.23;94505.66;5068360;28;20497;-59
2023/08/03 02:13:36;;;;;;;10.63;8.90;;;23.30;93.10;;;23.84;60.95;94510.78;5069984;28;21312;-66
2023/08/03 02:16:03;;;;;;;9.57;8.57;;;23.20;93.30;;;23.81;61.14;94514.75;5068023;28;20469;-66
2023/08/03 02:18:30;;;;;;;12.03;10.60;;;23.20;93.30;;;23.79;61.36;94509.59;5071160;28;20449;-60
2023/08/03 02:20:58;;;;;;;9.83;8.83;;;23.20;93.50;;;23.78;61.05;94512.53;5066751;28;20471;-58
2023/08/03 02:23:25;;;;;;;10.23;8.30;;;23.20;93.60;;;23.78;61.52;94512.53;5071876;28;20473;-58
2023/08/03 02:25:52;;;;;;;12.40;8.40;;;23.20;93.80;;;23.75;61.64;94511.13;5075190;28;20481;-66
2023/08/03 02:28:20;;;;;;;10.30;9.13;;;23.20;93.80;;;23.73;61.20;94510.53;5071125;28;20455;-65
2023/08/03 02:30:48;;;;;;;13.00;8.93;;;23.20;93.80;;;23.73;61.43;94517.78;5071368;28;21016;-57
2023/08/03 02:33:15;;;;;;;14.00;9.43;;;23.10;94.00;;;23.71;61.94;94518.00;5069082;28;21002;-66
2023/08/03 02:35:43;;;;;;;10.70;9.60;;;23.10;94.00;;;23.71;61.75;94514.50;5069972;28;20474;-66
2023/08/03 02:38:11;;;;;;;10.47;9.37;;;23.10;94.00;;;23.70;61.58;94519.06;5074875;28;20465;-59
2023/08/03 02:40:39;;;;;;;11.37;9.23;;;23.10;94.30;;;23.71;62.27;94514.50;5071461;28;20536;-66
2023/08/03 02:43:06;;;;;;;13.33;9.37;;;23.10;94.20;;;23.69;62.05;94517.44;5068441;28;20477;-65
2023/08/03 02:45:33;;;;;;;13.97;9.33;;;23.10;94.20;;;23.68;61.70;94515.78;5066399;28;20501;-58
2023/08/03 02:48:02;;;;;;;11.73;9.50;;;23.10;94.40;;;23.67;62.25;94514.16;5070200;28;20469;-63
2023/08/03 02:50:29;;;;;;;10.27;8.17;;;23.10;94.40;;;23.66;62.54;94517.88;5071680;28;20839;-58
2023/08/03 02:52:56;;;;;;;11.30;8.93;;;23.10;94.70;;;23.64;61.75;94522.69;5068763;28;20540;-62
2023/08/03 02:55:23;;;;;;;9.60;8.70;;;23.10;94.60;;;23.63;61.65;94523.72;5069418;28;21038;-59
2023/08/03 02:57:50;;;;;;;10.73;9.63;;;23.00;94.60;;;23.61;62.06;94526.63;5069212;28;20501;-58
2023/08/03 03:00:18;;;;;;;9.57;8.50;;;23.00;94.70;;;23.59;62.04;94522.53;5065330;28;21026;-57
2023/08/03 03:02:45;;;;;;;10.77;8.80;;;23.00;94.80;;;23.58;62.60;94523.59;5074009;28;20462;-66
2023/08/03 03:05:14;;;;;;;11.37;9.37;;;23.00;94.90;;;23.57;62.64;94533.50;5070342;28;20492;-58
2023/08/03 03:07:41;;;;;;;9.30;8.40;;;23.00;94.90;;;23.55;62.45;94538.28;5065166;28;20463;-57
2023/08/03 03:10:09;;;;;;;9.23;8.23;;;23.00;94.90;;;23.54;61.96;94536.63;5072034;28;20856;-58
2023/08/03 03:12:37;;;;;;;12.77;8.63;;;23.00;95.00;;;23.55;62.69;94540.16;5068055;28;20512;-65
2023/08/03 03:15:05;;;;;;;13.87;9.90;;;23.00;94.90;;;23.53;62.24;94543.06;5071545;28;20486;-65
2023/08/03 03:17:33;;;;;;;13.93;9.73;;;22.90;94.90;;;23.54;62.37;94547.38;5073297;28;20459;-65
2023/08/03 03:20:00;;;;;;;14.77;10.13;;;23.00;95.00;;;23.53;62.53;94545.75;5065378;28;20447;-57
2023/08/03 03:22:29;;;;;;;15.63;8.60;;;22.90;95.00;;;23.53;62.36;94553.81;5072141;28;20469;-65
2023/08/03 03:24:56;;;;;;;17.23;9.00;;;22.90;94.90;;;23.52;62.27;94552.16;5068879;28;20458;-58
2023/08/03 03:27:23;;;;;;;13.70;8.93;;;23.00;95.30;;;23.49;62.52;94547.25;5070817;28;20462;-58
2023/08/03 03:29:50;;;;;;;10.40;8.77;;;22.90;95.00;;;23.48;62.53;94550.16;5072161;28;20454;-65
2023/08/03 03:32:18;;;;;;;11.83;9.20;;;22.90;95.30;;;23.45;62.84;94546.06;5073247;28;20547;-66
2023/08/03 03:34:45;;;;;;;10.80;8.43;;;22.90;95.20;;;23.43;62.39;94548.97;5068330;28;20465;-65
2023/08/03 03:37:12;;;;;;;13.60;8.57;;;22.90;95.30;;;23.43;62.50;94551.66;5068283;28;20478;-65
2023/08/03 03:39:41;;;;;;;15.63;8.87;;;22.90;95.10;;;23.40;62.57;94543.25;5071720;28;20543;-64
2023/08/03 03:42:08;;;;;;;14.43;9.43;;;22.80;95.00;;;23.37;62.06;94555.25;5071897;28;20501;-61
2023/08/03 03:44:36;;;;;;;9.60;8.70;;;22.80;95.00;;;23.34;62.64;94552.22;5068356;28;20520;-58
2023/08/03 03:47:03;;;;;;;10.60;9.30;;;22.80;95.20;;;23.34;62.66;94554.91;5066632;28;20489;-64
2023/08/03 03:49:30;;;;;;;10.77;9.00;;;22.80;95.20;;;23.32;63.13;94555.13;5070709;28;21036;-65
2023/08/03 03:51:58;;;;;;;12.00;9.97;;;22.80;95.20;;;23.31;62.13;94556.16;5069411;28;20873;-58
2023/08/03 03:54:25;;;;;;;10.07;8.90;;;22.70;95.20;;;23.32;62.57;94557.00;5074151;28;20446;-58
2023/08/03 03:56:55;;;;;;;10.33;9.40;;;22.80;95.60;;;23.32;62.45;94555.13;5069028;28;20851;-58
2023/08/03 03:59:22;;;;;;;11.60;10.23;;;22.70;95.40;;;23.33;62.30;94555.94;5069973;28;20507;-67
2023/08/03 04:01:49;;;;;;;15.53;10.63;;;22.70;95.20;;;23.33;62.23;94559.47;5072070;28;20466;-58
2023/08/03 04:04:16;;;;;;;13.10;9.50;;;22.70;95.30;;;23.34;62.74;94553.03;5068158;28;20466;-59
2023/08/03 04:06:44;;;;;;;12.53;9.60;;;22.80;95.70;;;23.36;62.60;94559.00;5067276;28;20916;-65
2023/08/03 04:09:11;;;;;;;25.53;10.57;;;22.80;95.50;;;23.36;62.94;94563.53;5074525;28;20934;-64
2023/08/03 04:11:39;;;;;;;13.13;10.00;;;22.80;95.60;;;23.35;62.95;94559.22;5071677;28;20981;-66
2023/08/03 04:14:07;;;;;;;13.63;9.90;;;22.80;95.60;;;23.39;62.90;94563.91;5071728;28;20541;-59
2023/08/03 04:16:35;;;;;;;12.47;10.70;;;22.80;95.70;;;23.45;62.78;94571.06;5074734;28;20827;-65
2023/08/03 04:19:02;;;;;;;11.47;10.10;;;22.90;95.70;;;23.52;62.50;94570.97;5074532;28;20449;-66
2023/08/03 04:21:29;;;;;;;13.33;10.30;;;22.90;95.60;;;23.58;61.92;94572.72;5072986;28;20474;-58
2023/08/03 04:23:57;;;;;;;11.30;9.47;;;23.00;95.50;;;23.66;62.33;94574.28;5073110;28;20493;-59
2023/08/03 04:26:24;;;;;;;12.53;10.37;;;23.00;95.30;;;23.69;62.29;94573.81;5067009;28;20482;-59
2023/08/03 04:28:51;;;;;;;25.13;11.20;;;23.10;95.30;;;23.73;61.63;94574.16;5077493;28;20454;-59
2023/08/03 04:31:20;;;;;;;17.90;11.33;;;23.10;95.20;;;23.78;62.06;94576.97;5073082;28;20551;-59
2023/08/03 04:33:47;;;;;;;18.93;11.53;;;23.20;95.20;;;23.84;61.98;94578.78;5078939;28;20565;-66
2023/08/03 04:36:14;;;;;;;23.60;11.70;;;23.20;95.10;;;23.89;61.99;94575.41;5073291;28;21127;-66
2023/08/03 04:38:42;;;;;;;13.10;10.60;;;23.30;95.10;;;23.94;61.59;94587.09;5076023;28;20495;-67
2023/08/03 04:41:09;;;;;;;17.67;10.83;;;23.30;95.40;;;23.99;61.03;94576.47;5072385;28;20467;-67
2023/08/03 04:43:36;;;;;;;18.83;10.87;;;23.30;94.90;;;24.05;61.86;94579.31;5072271;28;20500;-66
2023/08/03 04:46:03;;;;;;;16.57;10.23;;;23.40;94.90;;;24.07;61.23;94575.31;5068408;28;20470;-65
2023/08/03 04:48:32;;;;;;;18.90;11.43;;;23.50;94.80;;;24.13;61.10;94585.16;5074350;28;20515;-58
2023/08/03 04:51:00;;;;;;;23.70;11.97;;;23.50;94.60;;;24.19;61.13;94591.47;5076211;28;20814;-65
2023/08/03 04:53:27;;;;;;;28.17;12.00;;;23.60;94.50;;;24.23;60.59;94587.28;5071976;28;20637;-69
2023/08/03 04:55:54;;;;;;;20.20;12.00;;;23.60;94.40;;;24.27;60.73;94587.63;5074813;28;20507;-66
2023/08/03 04:58:22;;;;;;;21.53;11.50;;;23.70;94.30;;;24.30;60.22;94596.03;5069537;28;21019;-59
2023/08/03 05:00:49;;;;;;;21.63;11.20;;;23.70;94.20;;;24.36;60.54;94601.56;5077781;28;20477;-59
2023/08/03 05:03:16;;;;;;;16.57;10.83;;;23.70;94.30;;;24.38;60.40;94599.44;5072963;28;20580;-65
2023/08/03 05:05:45;;;;;;;15.67;11.20;;;23.80;94.20;;;24.44;60.35;94601.19;5069955;28;20485;-58
2023/08/03 05:08:12;;;;;;;14.93;11.67;;;23.80;94.10;;;24.50;59.90;94594.88;5073270;28;20808;-64
2023/08/03 05:10:39;;;;;;;23.33;11.83;;;23.90;94.10;;;24.57;60.57;94600.16;5071649;28;20474;-65
2023/08/03 05:13:07;;;;;;;19.30;11.33;;;23.90;94.00;;;24.62;60.08;94606.50;5071304;28;20501;-59
2023/08/03 05:15:34;;;;;;;14.27;11.37;;;24.00;93.90;;;24.67;59.62;94605.78;5073457;28;20473;-58
2023/08/03 05:18:01;;;;;;;19.53;12.60;;;24.10;94.00;;;24.73;59.89;94598.66;5068565;28;21014;-64
2023/08/03 05:20:29;;;;;;;21.27;13.27;;;24.10;93.80;;;24.80;59.90;94602.88;5073766;28;20506;-65
2023/08/03 05:22:58;;;;;;;14.90;10.53;;;24.20;93.80;;;24.87;60.10;94600.84;5067525;28;20466;-59
2023/08/03 05:25:26;;;;;;;22.17;11.47;;;24.20;93.70;;;24.98;59.90;94609.97;5071346;28;20506;-64
2023/08/03 05:27:53;;;;;;;20.60;13.60;;;24.40;93.70;;;25.12;59.21;94618.59;5072536;28;20983;-59
2023/08/03 05:30:20;;;;;;;15.20;11.57;;;24.50;93.50;;;25.27;59.05;94611.91;5072219;28;20481;-58
2023/08/03 05:32:48;;;;;;;19.43;11.60;;;24.60;93.30;;;25.41;58.64;94614.13;5071389;28;20491;-65
2023/08/03 05:35:16;;;;;;;14.13;12.63;;;24.70;93.20;;;25.57;58.73;94615.22;5072051;28;20470;-58
2023/08/03 05:37:43;;;;;;;20.23;13.20;;;24.90;92.90;;;25.73;58.42;94602.88;5074431;28;20959;-63
2023/08/03 05:40:13;;;;;;;18.17;12.00;;;25.00;92.70;;;25.94;57.65;94614.84;5067758;28;20447;-58
2023/08/03 05:42:41;;;;;;;15.93;10.37;;;25.20;92.40;;;26.14;57.35;94612.78;5069686;28;20466;-58
2023/08/03 05:45:12;;;;;;;22.17;11.10;;;25.40;92.10;;;26.35;57.18;94614.75;5068661;28;20454;-65
2023/08/03 05:47:39;;;;;;;14.53;11.20;;;25.60;91.70;;;26.54;56.57;94609.94;5074272;28;20447;-66
2023/08/03 05:50:12;;;;;;;30.77;12.03;;;25.80;91.30;;;26.74;56.00;94609.47;5076366;28;20476;-60
2023/08/03 05:52:39;;;;;;;15.63;11.60;;;26.00;91.00;;;26.94;55.83;94617.03;5073994;28;20573;-59
2023/08/03 05:55:10;;;;;;;24.70;11.47;;;26.20;90.60;;;27.15;55.54;94620.81;5073500;28;20602;-64
2023/08/03 05:57:38;;;;;;;16.60;11.87;;;26.40;90.40;;;27.37;55.24;94622.72;5072602;28;20519;-58
2023/08/03 06:00:12;;;;;;;19.83;11.60;;;26.60;89.80;;;27.57;54.90;94629.47;5079595;28;20445;-72
2023/08/03 06:02:39;;;;;;;23.10;10.97;;;26.80;88.90;;;27.76;54.82;94632.63;5069923;28;20453;-61
2023/08/03 06:05:07;;;;;;;14.73;10.20;;;27.00;88.20;;;27.96;54.21;94632.06;5070846;28;20980;-60
2023/08/03 06:07:34;;;;;;;14.90;10.93;;;27.20;86.80;;;28.14;53.23;94620.91;5077646;28;20532;-68
2023/08/03 06:10:02;;;;;;;16.40;10.30;;;27.30;86.30;;;28.31;53.19;94628.91;5074132;28;20446;-66
2023/08/03 06:12:29;;;;;;;14.90;11.20;;;27.50;85.60;;;28.50;52.80;94636.63;5075269;28;20486;-59
2023/08/03 06:14:57;;;;;;;15.77;12.13;;;27.70;84.90;;;28.67;52.22;94631.09;5077980;28;21040;-59
2023/08/03 06:17:25;;;;;;;11.20;10.10;;;27.90;84.10;;;28.84;51.72;94620.94;5073602;28;21324;-60
2023/08/03 06:19:52;;;;;;;11.50;10.30;;;28.00;83.20;;;29.05;52.07;94631.88;5071054;28;20460;-65
2023/08/03 06:22:22;;;;;;;11.77;10.20;;;28.20;82.60;;;29.23;51.66;94628.75;5071982;28;20454;-59
2023/08/03 06:24:50;;;;;;;18.33;10.60;;;28.40;81.30;;;29.41;51.47;94637.53;5082785;28;20485;-59
2023/08/03 06:27:17;;;;;;;12.30;9.80;;;28.60;81.50;;;29.57;51.33;94633.81;5070562;28;20247;-60
2023/08/03 06:29:45;;;;;;;13.43;10.27;;;28.70;80.40;;;29.75;50.63;94629.81;5069358;28;20188;-67
2023/08/03 06:32:23;;;;;;;14.87;10.90;;;28.90;79.30;;;29.95;49.56;94633.69;5069878;28;20240;-71
2023/08/03 06:34:50;;;;;;;12.80;10.47;;;29.10;78.70;;;30.14;49.99;94636.72;5074496;28;20204;-58
2023/08/03 06:37:18;;;;;;;10.97;9.87;;;29.30;77.80;;;30.31;49.14;94631.84;5070763;28;20270;-69
2023/08/03 06:39:45;;;;;;;26.93;12.07;;;29.50;76.90;;;30.46;49.01;94636.50;5068827;28;20196;-59
2023/08/03 06:42:12;;;;;;;12.50;11.20;;;29.60;75.60;;;30.56;47.97;94627.53;5070675;28;20216;-59
2023/08/03 06:44:39;;;;;;;21.23;10.80;;;29.70;75.70;;;30.70;48.24;94633.25;5076311;28;20204;-60
2023/08/03 06:47:07;;;;;;;15.57;9.90;;;29.80;74.90;;;30.85;48.04;94637.84;5070578;28;20215;-59
2023/08/03 06:49:36;;;;;;;11.40;9.50;;;30.00;74.50;;;31.00;46.94;94637.88;5070350;28;20258;-68
2023/08/03 06:52:03;;;;;;;12.10;10.00;;;30.10;73.80;;;31.18;47.23;94641.09;5074476;28;20219;-69
2023/08/03 06:54:31;;;;;;;13.03;10.00;;;30.30;73.30;;;31.36;46.69;94634.25;5072493;28;20187;-60
2023/08/03 06:56:58;;;;;;;12.90;10.57;;;30.50;72.30;;;31.55;46.59;94643.44;5070378;28;20224;-58
2023/08/03 06:59:25;;;;;;;16.42;10.35;;;30.70;71.70;;;31.75;46.14;94631.66;5077013;28;20196;-60
2023/08/03 07:01:52;;;;;;;17.70;10.50;;;30.80;70.90;;;31.88;45.58;94635.66;5070378;28;20231;-59
2023/08/03 07:04:20;;;;;;;13.90;10.63;;;31.00;70.00;;;31.91;45.29;94631.56;5071365;28;20595;-69
2023/08/03 07:06:49;;;;;;;16.73;11.00;;;31.10;69.70;;;31.85;45.33;94629.97;5076980;28;20230;-68
2023/08/03 07:09:16;;;;;;;13.37;9.70;;;31.10;69.70;;;31.88;45.14;94630.22;5074726;28;20204;-68
2023/08/03 07:11:43;;;;;;;19.57;10.60;;;31.10;69.10;;;31.98;44.51;94629.38;5078315;28;20242;-68
2023/08/03 07:14:10;;;;;;;13.07;9.88;;;31.10;68.10;;;31.89;43.70;94626.41;5071081;28;20195;-65
2023/08/03 07:16:38;;;;;;;17.33;11.55;;;31.10;67.50;;;31.68;44.00;94631.13;5069295;28;20222;-63
2023/08/03 07:19:10;;;;;;;14.40;10.27;;;30.90;66.80;;;31.49;44.96;94625.47;5073616;28;21156;-67
2023/08/03 07:21:37;;;;;;;16.57;10.27;;;30.80;67.70;;;31.56;44.64;94627.94;5067636;28;20216;-66
2023/08/03 07:24:07;;;;;;;16.20;11.03;;;30.80;68.30;;;31.73;44.26;94622.97;5069540;28;20204;-66
2023/08/03 07:26:34;;;;;;;19.47;10.87;;;30.90;67.70;;;31.88;44.59;94618.53;5072241;28;20235;-58
2023/08/03 07:29:01;;;;;;;16.08;9.63;;;31.00;67.80;;;32.00;43.88;94629.91;5070682;28;20226;-65
2023/08/03 07:31:30;;;;;;;26.23;10.80;;;31.20;67.30;;;32.10;43.72;94623.59;5069438;28;20789;-65
2023/08/03 07:33:57;;;;;;;14.50;11.05;;;31.30;66.50;;;32.20;43.27;94615.38;5069536;28;20220;-60
2023/08/03 07:36:24;;;;;;;10.68;9.68;;;31.40;65.80;;;32.29;43.76;94616.41;5068320;28;20227;-60
2023/08/03 07:38:52;;;;;;;11.68;10.30;;;31.50;66.80;;;32.49;43.36;94618.16;5071357;28;20253;-58
2023/08/03 07:41:21;;;;;;;11.52;9.93;;;31.60;65.70;;;32.58;43.12;94617.53;5072243;28;20216;-64
2023/08/03 07:43:50;;;;;;;10.77;9.68;;;31.80;65.30;;;32.70;43.38;94620.75;5070271;28;20230;-66
2023/08/03 07:46:17;;;;;;;12.23;10.65;;;31.90;65.60;;;32.94;42.71;94611.78;5073857;28;20212;-66
2023/08/03 07:48:44;;;;;;;16.13;10.82;;;32.10;64.70;;;33.16;41.46;94614.84;5072880;28;20200;-62
2023/08/03 07:51:13;;;;;;;17.17;10.95;;;32.30;63.40;;;33.29;41.39;94618.81;5074444;28;20228;-63
2023/08/03 07:53:40;;;;;;;17.40;10.82;;;32.40;63.10;;;33.37;42.11;94615.47;5076511;28;20231;-63
2023/08/03 07:56:15;;;;;;;16.83;10.32;;;32.50;63.40;;;33.48;41.31;94607.97;5079575;28;20769;-57
2023/08/03 07:58:44;;;;;;;19.77;9.98;;;32.60;62.50;;;33.67;41.48;94612.66;5081763;28;20287;-64
2023/08/03 08:01:11;;;;;;;23.55;11.02;;;32.80;62.00;;;33.71;41.15;94609.09;5079934;28;20219;-57
2023/08/03 08:03:39;;;;;;;22.08;11.73;;;32.90;61.50;;;33.81;40.95;94608.13;5074471;28;21081;-55
2023/08/03 08:06:06;;;;;;;16.92;10.43;;;33.00;61.40;;;33.95;41.88;94605.50;5070571;28;20223;-61
2023/08/03 08:08:33;;;;;;;11.25;9.95;;;33.20;63.20;;;34.27;40.78;94599.31;5079165;28;20235;-56
2023/08/03 08:11:01;;;;;;;17.05;10.68;;;33.40;61.90;;;34.64;39.72;94600.38;5075475;28;20557;-63
2023/08/03 08:13:28;;;;;;;11.70;10.35;;;33.70;60.50;;;34.96;39.06;94603.41;5069110;28;20234;-57
2023/08/03 08:16:00;;;;;;;17.38;10.15;;;34.10;59.70;;;35.25;38.72;94607.81;5074532;28;20226;-61
2023/08/03 08:18:27;;;;;;;16.75;10.82;;;34.40;58.50;;;35.30;38.79;94603.06;5072504;28;20555;-57
2023/08/03 08:20:57;;;;;;;11.50;10.27;;;34.40;58.20;;;35.14;37.75;94602.50;5071360;28;20228;-61
2023/08/03 08:23:25;;;;;;;16.95;11.20;;;34.40;58.00;;;35.02;39.23;94594.00;5077289;28;20313;-57
2023/08/03 08:25:52;;;;;;;37.85;10.95;;;34.30;58.40;;;35.21;37.63;94599.38;5076704;28;20265;-57
2023/08/03 08:28:19;;;;;;;12.27;11.18;;;34.40;57.30;;;35.27;37.50;94600.94;5072063;28;20211;-61
2023/08/03 08:30:47;;;;;;;14.88;10.75;;;34.50;57.10;;;35.21;37.50;94588.44;5073000;28;20223;-62
2023/08/03 08:33:16;;;;;;;15.98;11.00;;;34.40;57.30;;;35.16;37.03;94588.53;5073460;28;21022;-61
2023/08/03 08:35:44;;;;;;;15.55;10.75;;;34.30;56.40;;;34.87;37.33;94586.88;5072855;28;20236;-61
2023/08/03 08:38:12;;;;;;;18.80;10.95;;;34.10;56.50;;;34.65;38.52;94582.84;5074224;28;20299;-56
2023/08/03 08:40:40;;;;;;;14.27;11.30;;;33.90;57.80;;;34.86;37.79;94574.34;5068465;28;20224;-62
2023/08/03 08:43:07;;;;;;;20.08;11.15;;;34.00;57.30;;;35.13;38.73;94580.94;5072926;28;20226;-56
2023/08/03 08:45:34;;;;;;;15.98;11.00;;;34.30;58.00;;;35.57;36.70;94581.47;5071881;28;20227;-58
2023/08/03 08:48:02;;;;;;;12.95;11.20;;;34.60;56.40;;;36.00;37.20;94583.88;5071045;28;20567;-57
2023/08/03 08:50:30;;;;;;;13.25;11.15;;;35.00;56.40;;;36.31;35.92;94570.28;5071132;28;20952;-62
2023/08/03 08:52:57;;;;;;;11.32;10.32;;;35.40;55.20;;;36.60;35.49;94577.28;5069156;28;20703;-62
2023/08/03 08:55:26;;;;;;;19.90;10.93;;;35.70;54.20;;;36.85;34.97;94573.09;5078354;28;20224;-61
2023/08/03 08:57:54;;;;;;;11.43;9.65;;;35.90;53.60;;;36.68;34.55;94572.97;5074493;28;20203;-63
2023/08/03 09:00:23;;;;;;;11.98;9.95;;;35.80;52.70;;;36.41;35.67;94575.53;5073649;28;20727;-59
2023/08/03 09:02:50;;;;;;;13.95;11.00;;;35.70;53.60;;;36.36;35.31;94575.66;5075004;28;20735;-58
2023/08/03 09:05:19;;;;;;;13.63;11.43;;;35.50;53.30;;;36.48;34.93;94569.59;5074354;28;20220;-58
2023/08/03 09:08:01;;;;;;;15.73;8.90;;;35.60;53.70;;;36.83;34.88;94574.53;5072763;28;20200;-58
2023/08/03 09:10:29;;;;;;;16.42;10.15;;;35.90;53.60;;;37.22;34.49;94567.47;5076479;28;20309;-61
2023/08/03 09:12:56;;;;;;;13.50;11.50;;;36.30;52.90;;;37.50;33.40;94565.31;5070712;28;20231;-59
2023/08/03 09:15:37;;;;;;;12.88;10.57;;;36.60;51.90;;;37.75;33.28;94558.28;5072775;28;20220;-59
2023/08/03 09:18:05;;;;;;;11.20;10.30;;;36.80;51.40;;;37.68;33.13;94563.44;5075884;28;20187;-62
2023/08/03 09:20:33;;;;;;;12.80;10.63;;;36.80;50.90;;;37.30;32.96;94556.53;5069013;28;20260;-60
2023/08/03 09:23:01;;;;;;;13.25;10.90;;;36.50;50.60;;;37.04;33.49;94561.88;5072891;28;20208;-59
2023/08/03 09:25:28;;;;;;;13.77;9.77;;;36.30;51.50;;;37.03;34.01;94557.53;5074788;28;20220;-58
2023/08/03 09:27:56;;;;;;;11.82;10.60;;;36.20;51.40;;;37.20;33.87;94553.25;5072575;28;20261;-58
2023/08/03 09:30:24;;;;;;;10.43;9.43;;;36.30;51.30;;;37.43;33.48;94556.72;5070689;28;20790;-61
2023/08/03 09:32:52;;;;;;;16.98;9.05;;;36.50;51.50;;;37.70;32.64;94552.97;5068835;28;20224;-65
2023/08/03 09:35:20;;;;;;;12.55;10.25;;;36.70;50.40;;;37.88;32.91;94547.50;5073135;28;20222;-64
2023/08/03 09:37:47;;;;;;;18.10;10.15;;;36.90;50.50;;;37.98;32.45;94547.19;5076571;28;20256;-60
2023/08/03 09:40:17;;;;;;;17.80;10.70;;;37.00;49.50;;;37.93;32.71;94539.91;5072597;28;20630;-60
2023/08/03 09:42:45;;;;;;;17.73;9.52;;;37.00;49.90;;;37.68;32.85;94538.72;5072036;28;20205;-63
2023/08/03 09:45:12;;;;;;;10.95;9.82;;;36.80;49.80;;;37.43;33.55;94530.13;5071356;28;20246;-59
2023/08/03 09:47:40;;;;;;;22.95;10.98;;;36.70;51.00;;;37.49;33.26;94537.06;5075368;28;20215;-64
2023/08/03 09:50:08;;;;;;;12.80;10.07;;;36.70;50.50;;;37.50;33.03;94524.97;5067955;28;20199;-60
2023/08/03 09:52:42;;;;;;;17.58;9.73;;;36.60;50.20;;;37.45;33.29;94527.84;5072383;28;20261;-63
2023/08/03 09:55:13;;;;;;;12.02;10.02;;;36.60;50.60;;;37.60;32.81;94526.59;5074486;28;20582;-65
2023/08/03 09:57:44;;;;;;;14.05;10.10;;;36.70;50.00;;;37.80;32.83;94525.22;5072391;28;20273;-59
2023/08/03 10:00:13;;;;;;;15.50;10.20;;;36.80;50.20;;;37.98;32.69;94520.53;5075510;28;20196;-63
2023/08/03 10:02:45;;;;;;;11.57;10.52;;;37.10;49.60;;;38.07;32.09;94520.53;5070147;28;20200;-58
2023/08/03 10:05:17;;;;;;;11.07;10.07;;;37.10;49.50;;;38.02;31.90;94534.44;5067927;28;20204;-58
2023/08/03 10:07:49;;;;;;;13.20;10.63;;;37.10;49.40;;;37.77;31.93;94525.03;5072692;28;20200;-64
2023/08/03 10:10:16;;;;;;;17.77;9.52;;;36.90;48.90;;;37.53;32.52;94511.75;5073426;28;20323;-59
2023/08/03 10:12:48;;;;;;;12.55;11.25;;;36.70;49.40;;;37.45;32.58;94514.13;5069741;28;20204;-61